sensor_id;sensor_type;location;lat;lon;timestamp;P1;durP1;ratioP1;P2;durP2;ratioP2
17636;SDS011;8937;51.236;6.794;2023-04-05T00:06:42;1.97;;;1.87;;
17636;SDS011;8937;51.236;6.794;2023-04-05T00:15:08;2.83;;;2.30;;
17636;SDS011;8937;51.236;6.794;2023-04-05T00:23:29;3.67;;;2.00;;
17636;SDS011;8937;51.236;6.794;2023-04-05T00:31:57;2.67;;;2.00;;
17636;SDS011;8937;51.236;6.794;2023-04-05T00:40:19;2.33;;;2.20;;
17636;SDS011;8937;51.236;6.794;2023-04-05T00:48:41;3.10;;;1.97;;
17636;SDS011;8937;51.236;6.794;2023-04-05T00:57:03;2.00;;;1.90;;
17636;SDS011;8937;51.236;6.794;2023-04-05T01:05:32;2.33;;;2.13;;
17636;SDS011;8937;51.236;6.794;2023-04-05T01:13:58;3.40;;;1.73;;
17636;SDS011;8937;51.236;6.794;2023-04-05T01:22:30;2.20;;;2.07;;
17636;SDS011;8937;51.236;6.794;2023-04-05T01:30:59;1.83;;;1.73;;
17636;SDS011;8937;51.236;6.794;2023-04-05T01:39:24;2.60;;;1.93;;
17636;SDS011;8937;51.236;6.794;2023-04-05T01:47:48;1.93;;;1.83;;
17636;SDS011;8937;51.236;6.794;2023-04-05T01:56:09;2.90;;;2.07;;
17636;SDS011;8937;51.236;6.794;2023-04-05T02:04:32;2.10;;;1.90;;
17636;SDS011;8937;51.236;6.794;2023-04-05T02:12:53;2.20;;;2.00;;
17636;SDS011;8937;51.236;6.794;2023-04-05T02:21:16;3.30;;;1.90;;
17636;SDS011;8937;51.236;6.794;2023-04-05T02:29:40;2.23;;;2.03;;
17636;SDS011;8937;51.236;6.794;2023-04-05T02:38:03;2.33;;;2.13;;
17636;SDS011;8937;51.236;6.794;2023-04-05T02:46:25;1.90;;;1.80;;
17636;SDS011;8937;51.236;6.794;2023-04-05T02:54:48;2.57;;;1.97;;
17636;SDS011;8937;51.236;6.794;2023-04-05T03:03:09;2.30;;;1.80;;
17636;SDS011;8937;51.236;6.794;2023-04-05T03:11:32;1.90;;;1.80;;
17636;SDS011;8937;51.236;6.794;2023-04-05T03:19:53;2.23;;;2.03;;
17636;SDS011;8937;51.236;6.794;2023-04-05T03:28:16;2.20;;;1.90;;
17636;SDS011;8937;51.236;6.794;2023-04-05T03:36:37;3.10;;;1.93;;
17636;SDS011;8937;51.236;6.794;2023-04-05T03:45:08;3.90;;;1.90;;
17636;SDS011;8937;51.236;6.794;2023-04-05T03:53:29;1.90;;;1.80;;
17636;SDS011;8937;51.236;6.794;2023-04-05T04:01:52;1.80;;;1.70;;
17636;SDS011;8937;51.236;6.794;2023-04-05T04:10:13;2.23;;;2.00;;
17636;SDS011;8937;51.236;6.794;2023-04-05T04:18:38;2.10;;;1.73;;
17636;SDS011;8937;51.236;6.794;2023-04-05T04:26:59;1.90;;;1.80;;
17636;SDS011;8937;51.236;6.794;2023-04-05T04:35:22;2.33;;;2.10;;
17636;SDS011;8937;51.236;6.794;2023-04-05T04:43:44;1.87;;;1.77;;
17636;SDS011;8937;51.236;6.794;2023-04-05T04:52:07;1.83;;;1.73;;
17636;SDS011;8937;51.236;6.794;2023-04-05T05:00:29;5.90;;;2.83;;
17636;SDS011;8937;51.236;6.794;2023-04-05T05:08:51;3.57;;;1.87;;
17636;SDS011;8937;51.236;6.794;2023-04-05T05:17:13;4.47;;;2.17;;
17636;SDS011;8937;51.236;6.794;2023-04-05T05:25:36;4.47;;;2.17;;
17636;SDS011;8937;51.236;6.794;2023-04-05T05:33:57;4.53;;;1.90;;
17636;SDS011;8937;51.236;6.794;2023-04-05T05:42:20;2.63;;;2.43;;
17636;SDS011;8937;51.236;6.794;2023-04-05T05:50:43;3.77;;;2.20;;
17636;SDS011;8937;51.236;6.794;2023-04-05T05:59:09;3.33;;;2.47;;
17636;SDS011;8937;51.236;6.794;2023-04-05T06:07:34;2.03;;;1.83;;
17636;SDS011;8937;51.236;6.794;2023-04-05T06:15:56;4.20;;;2.10;;
17636;SDS011;8937;51.236;6.794;2023-04-05T06:24:18;3.17;;;1.87;;
17636;SDS011;8937;51.236;6.794;2023-04-05T06:32:41;2.80;;;2.10;;
17636;SDS011;8937;51.236;6.794;2023-04-05T06:41:02;2.93;;;2.00;;
17636;SDS011;8937;51.236;6.794;2023-04-05T06:49:25;2.60;;;1.93;;
17636;SDS011;8937;51.236;6.794;2023-04-05T06:57:46;2.93;;;2.63;;
17636;SDS011;8937;51.236;6.794;2023-04-05T07:06:09;2.47;;;2.27;;
17636;SDS011;8937;51.236;6.794;2023-04-05T07:14:31;4.93;;;2.43;;
17636;SDS011;8937;51.236;6.794;2023-04-05T07:22:54;4.00;;;2.67;;
17636;SDS011;8937;51.236;6.794;2023-04-05T07:31:16;3.40;;;2.23;;
17636;SDS011;8937;51.236;6.794;2023-04-05T07:39:39;3.87;;;2.30;;
17636;SDS011;8937;51.236;6.794;2023-04-05T07:48:00;8.87;;;2.60;;
17636;SDS011;8937;51.236;6.794;2023-04-05T07:56:23;2.63;;;2.43;;
17636;SDS011;8937;51.236;6.794;2023-04-05T08:04:45;2.27;;;2.07;;
17636;SDS011;8937;51.236;6.794;2023-04-05T08:13:07;2.70;;;2.50;;
17636;SDS011;8937;51.236;6.794;2023-04-05T08:21:29;4.80;;;2.13;;
17636;SDS011;8937;51.236;6.794;2023-04-05T08:29:52;2.90;;;2.53;;
17636;SDS011;8937;51.236;6.794;2023-04-05T08:38:13;3.37;;;2.43;;
17636;SDS011;8937;51.236;6.794;2023-04-05T08:46:36;4.57;;;2.63;;
17636;SDS011;8937;51.236;6.794;2023-04-05T08:54:57;2.53;;;2.33;;
17636;SDS011;8937;51.236;6.794;2023-04-05T09:03:21;3.73;;;2.60;;
17636;SDS011;8937;51.236;6.794;2023-04-05T09:11:43;4.50;;;2.57;;
17636;SDS011;8937;51.236;6.794;2023-04-05T09:20:06;3.17;;;2.83;;
17636;SDS011;8937;51.236;6.794;2023-04-05T09:28:40;2.97;;;2.77;;
17636;SDS011;8937;51.236;6.794;2023-04-05T09:37:10;2.83;;;2.63;;
17636;SDS011;8937;51.236;6.794;2023-04-05T09:45:32;2.97;;;2.67;;
17636;SDS011;8937;51.236;6.794;2023-04-05T09:54:01;2.77;;;2.53;;
17636;SDS011;8937;51.236;6.794;2023-04-05T10:02:23;3.73;;;2.53;;
17636;SDS011;8937;51.236;6.794;2023-04-05T10:10:46;3.57;;;2.70;;
17636;SDS011;8937;51.236;6.794;2023-04-05T10:19:08;3.80;;;3.40;;
17636;SDS011;8937;51.236;6.794;2023-04-05T10:27:38;4.37;;;3.50;;
17636;SDS011;8937;51.236;6.794;2023-04-05T10:36:01;3.57;;;3.20;;
17636;SDS011;8937;51.236;6.794;2023-04-05T10:44:31;5.20;;;4.07;;
17636;SDS011;8937;51.236;6.794;2023-04-05T10:52:54;3.97;;;2.90;;
17636;SDS011;8937;51.236;6.794;2023-04-05T11:01:18;3.00;;;2.70;;
17636;SDS011;8937;51.236;6.794;2023-04-05T11:09:49;4.07;;;2.97;;
17636;SDS011;8937;51.236;6.794;2023-04-05T11:18:19;3.87;;;2.90;;
17636;SDS011;8937;51.236;6.794;2023-04-05T11:26:51;4.47;;;3.17;;
17636;SDS011;8937;51.236;6.794;2023-04-05T11:35:15;3.00;;;2.77;;
17636;SDS011;8937;51.236;6.794;2023-04-05T11:43:42;3.63;;;3.30;;
17636;SDS011;8937;51.236;6.794;2023-04-05T11:52:15;3.10;;;2.80;;
17636;SDS011;8937;51.236;6.794;2023-04-05T12:00:37;3.30;;;3.00;;
17636;SDS011;8937;51.236;6.794;2023-04-05T12:09:02;3.17;;;2.97;;
17636;SDS011;8937;51.236;6.794;2023-04-05T12:17:36;3.20;;;2.90;;
17636;SDS011;8937;51.236;6.794;2023-04-05T12:25:59;3.50;;;3.13;;
17636;SDS011;8937;51.236;6.794;2023-04-05T12:34:22;3.30;;;3.00;;
17636;SDS011;8937;51.236;6.794;2023-04-05T12:42:46;3.27;;;2.97;;
17636;SDS011;8937;51.236;6.794;2023-04-05T12:51:12;2.90;;;2.70;;
17636;SDS011;8937;51.236;6.794;2023-04-05T12:59:35;3.33;;;2.90;;
17636;SDS011;8937;51.236;6.794;2023-04-05T13:07:57;3.60;;;3.30;;
17636;SDS011;8937;51.236;6.794;2023-04-05T13:16:20;5.97;;;3.50;;
17636;SDS011;8937;51.236;6.794;2023-04-05T13:24:41;6.63;;;3.80;;
17636;SDS011;8937;51.236;6.794;2023-04-05T13:33:04;4.07;;;3.57;;
17636;SDS011;8937;51.236;6.794;2023-04-05T13:41:25;4.17;;;3.60;;
17636;SDS011;8937;51.236;6.794;2023-04-05T13:49:48;3.30;;;3.00;;
17636;SDS011;8937;51.236;6.794;2023-04-05T13:58:09;6.77;;;3.73;;
17636;SDS011;8937;51.236;6.794;2023-04-05T14:06:32;3.80;;;3.50;;
17636;SDS011;8937;51.236;6.794;2023-04-05T14:14:53;3.47;;;3.17;;
17636;SDS011;8937;51.236;6.794;2023-04-05T14:23:16;3.53;;;3.23;;
17636;SDS011;8937;51.236;6.794;2023-04-05T14:31:38;4.07;;;3.33;;
17636;SDS011;8937;51.236;6.794;2023-04-05T14:40:00;3.87;;;3.50;;
17636;SDS011;8937;51.236;6.794;2023-04-05T14:48:22;3.47;;;3.17;;
17636;SDS011;8937;51.236;6.794;2023-04-05T14:56:45;5.63;;;3.70;;
17636;SDS011;8937;51.236;6.794;2023-04-05T15:05:07;4.83;;;3.20;;
17636;SDS011;8937;51.236;6.794;2023-04-05T15:13:30;3.00;;;2.80;;
17636;SDS011;8937;51.236;6.794;2023-04-05T15:21:51;2.80;;;2.60;;
17636;SDS011;8937;51.236;6.794;2023-04-05T15:30:14;3.33;;;3.03;;
17636;SDS011;8937;51.236;6.794;2023-04-05T15:38:36;4.77;;;3.30;;
17636;SDS011;8937;51.236;6.794;2023-04-05T15:46:58;2.80;;;2.60;;
17636;SDS011;8937;51.236;6.794;2023-04-05T15:55:21;10.27;;;3.43;;
17636;SDS011;8937;51.236;6.794;2023-04-05T16:03:44;5.13;;;3.70;;
17636;SDS011;8937;51.236;6.794;2023-04-05T16:12:05;4.33;;;3.23;;
17636;SDS011;8937;51.236;6.794;2023-04-05T16:20:28;4.27;;;2.80;;
17636;SDS011;8937;51.236;6.794;2023-04-05T16:28:50;4.73;;;3.57;;
17636;SDS011;8937;51.236;6.794;2023-04-05T16:37:13;3.83;;;3.20;;
17636;SDS011;8937;51.236;6.794;2023-04-05T16:45:34;4.20;;;3.17;;
17636;SDS011;8937;51.236;6.794;2023-04-05T16:53:57;3.87;;;3.43;;
17636;SDS011;8937;51.236;6.794;2023-04-05T17:02:19;5.20;;;4.00;;
17636;SDS011;8937;51.236;6.794;2023-04-05T17:10:42;4.67;;;3.67;;
17636;SDS011;8937;51.236;6.794;2023-04-05T17:19:04;5.30;;;4.33;;
17636;SDS011;8937;51.236;6.794;2023-04-05T17:27:27;4.77;;;3.57;;
17636;SDS011;8937;51.236;6.794;2023-04-05T17:35:48;6.10;;;4.27;;
17636;SDS011;8937;51.236;6.794;2023-04-05T17:44:11;6.30;;;4.60;;
17636;SDS011;8937;51.236;6.794;2023-04-05T17:52:32;6.57;;;4.37;;
17636;SDS011;8937;51.236;6.794;2023-04-05T18:00:55;4.53;;;3.90;;
17636;SDS011;8937;51.236;6.794;2023-04-05T18:09:16;4.97;;;3.47;;
17636;SDS011;8937;51.236;6.794;2023-04-05T18:17:39;6.53;;;4.20;;
17636;SDS011;8937;51.236;6.794;2023-04-05T18:26:04;6.47;;;4.30;;
17636;SDS011;8937;51.236;6.794;2023-04-05T18:34:26;15.97;;;4.70;;
17636;SDS011;8937;51.236;6.794;2023-04-05T18:42:48;4.27;;;3.70;;
17636;SDS011;8937;51.236;6.794;2023-04-05T18:51:11;4.90;;;3.70;;
17636;SDS011;8937;51.236;6.794;2023-04-05T18:59:32;7.30;;;3.73;;
17636;SDS011;8937;51.236;6.794;2023-04-05T19:07:55;5.20;;;4.07;;
17636;SDS011;8937;51.236;6.794;2023-04-05T19:16:16;4.83;;;3.60;;
17636;SDS011;8937;51.236;6.794;2023-04-05T19:24:39;4.80;;;3.57;;
17636;SDS011;8937;51.236;6.794;2023-04-05T19:33:01;3.37;;;3.07;;
17636;SDS011;8937;51.236;6.794;2023-04-05T19:41:24;7.73;;;3.57;;
17636;SDS011;8937;51.236;6.794;2023-04-05T19:49:49;3.93;;;3.00;;
17636;SDS011;8937;51.236;6.794;2023-04-05T19:58:25;7.73;;;3.30;;
17636;SDS011;8937;51.236;6.794;2023-04-05T20:06:47;3.27;;;2.97;;
17636;SDS011;8937;51.236;6.794;2023-04-05T20:15:13;3.27;;;2.97;;
17636;SDS011;8937;51.236;6.794;2023-04-05T20:23:34;3.57;;;3.10;;
17636;SDS011;8937;51.236;6.794;2023-04-05T20:31:59;4.47;;;3.20;;
17636;SDS011;8937;51.236;6.794;2023-04-05T20:40:21;4.43;;;3.10;;
17636;SDS011;8937;51.236;6.794;2023-04-05T20:48:43;5.67;;;3.13;;
17636;SDS011;8937;51.236;6.794;2023-04-05T20:57:05;3.77;;;2.83;;
17636;SDS011;8937;51.236;6.794;2023-04-05T21:05:28;3.30;;;3.00;;
17636;SDS011;8937;51.236;6.794;2023-04-05T21:13:50;5.43;;;2.70;;
17636;SDS011;8937;51.236;6.794;2023-04-05T21:22:13;3.10;;;2.73;;
17636;SDS011;8937;51.236;6.794;2023-04-05T21:30:34;3.47;;;2.60;;
17636;SDS011;8937;51.236;6.794;2023-04-05T21:38:57;3.30;;;2.47;;
17636;SDS011;8937;51.236;6.794;2023-04-05T21:47:19;2.73;;;2.53;;
17636;SDS011;8937;51.236;6.794;2023-04-05T21:55:41;3.23;;;2.63;;
17636;SDS011;8937;51.236;6.794;2023-04-05T22:04:03;4.20;;;2.57;;
17636;SDS011;8937;51.236;6.794;2023-04-05T22:12:26;4.07;;;2.70;;
17636;SDS011;8937;51.236;6.794;2023-04-05T22:20:47;3.17;;;2.87;;
17636;SDS011;8937;51.236;6.794;2023-04-05T22:29:10;2.63;;;2.20;;
17636;SDS011;8937;51.236;6.794;2023-04-05T22:37:31;2.83;;;2.57;;
17636;SDS011;8937;51.236;6.794;2023-04-05T22:45:56;2.80;;;2.60;;
17636;SDS011;8937;51.236;6.794;2023-04-05T22:54:18;2.30;;;2.13;;
17636;SDS011;8937;51.236;6.794;2023-04-05T23:02:41;2.90;;;2.60;;
17636;SDS011;8937;51.236;6.794;2023-04-05T23:11:02;2.60;;;2.37;;
17636;SDS011;8937;51.236;6.794;2023-04-05T23:19:25;2.57;;;2.37;;
17636;SDS011;8937;51.236;6.794;2023-04-05T23:27:47;2.93;;;2.60;;
17636;SDS011;8937;51.236;6.794;2023-04-05T23:36:10;2.77;;;2.50;;
17636;SDS011;8937;51.236;6.794;2023-04-05T23:44:31;7.53;;;3.10;;
17636;SDS011;8937;51.236;6.794;2023-04-05T23:52:54;3.80;;;2.77;;
